Tuesday, February 20, 2018, 9:44 AM GMT
Back to Local

CYHU, Saint Hubert Airport

Location: , , Canada Lat: 45.517
Local Time: 9:44 AM GMT ( 9:44 GMT) Lon: -73.417
Time Zone: GMT Elev: 88 ft

Show me the last for .
Show Decoded

2018-02-20 09:00 METAR CYHU 200900Z AUTO 06005KT 3/4SM R24R/3500V5500FT/ -RA BR OVC005 02/01
                 A3014 RMK SLP210 =
2018-02-20 08:26 METAR CYHU 200826Z AUTO 12002KT 1 3/4SM -RA BR BKN005 OVC012 03/02 A3015 RMK
                 SLP212 =
2018-02-20 08:24 METAR CYHU 200824Z AUTO 13002KT 2SM -RA BR BKN005 OVC012 03/02 A3015 RMK SLP211
                 =
2018-02-20 08:17 METAR CYHU 200817Z AUTO 13004KT 2SM -RA BR BKN007 OVC012 02/02 A3015 RMK SLP211
                 =
2018-02-20 08:06 METAR CYHU 200806Z AUTO 14005KT 2SM -RA BR SCT007 OVC012 02/02 A3014 RMK SLP210
                 =
2018-02-20 08:00 METAR CYHU 200800Z AUTO 14005KT 2 1/4SM BR SCT007 OVC012 02/02 A3014 RMK SLP210
                 =
2018-02-20 07:38 METAR CYHU 200738Z AUTO 13005KT 2 1/2SM BR SCT007 BKN012 BKN031 OVC055 02/02
                 A3014 RMK SLP209 =
2018-02-20 07:37 METAR CYHU 200737Z AUTO 13005KT 2 1/2SM BR SCT007 SCT012 BKN031 OVC055 02/02
                 A3014 RMK SLP209 =
2018-02-20 07:00 METAR CYHU 200700Z AUTO 13006KT 2SM -RA BR FEW014 SCT040 OVC085 02/02 A3014 RMK
                 SLP208 =
2018-02-20 06:50 METAR CYHU 200650Z AUTO 13007KT 2SM -RA BR SCT014 BKN040 OVC080 02/02 A3014 RMK
                 SLP210 =
2018-02-20 06:48 METAR CYHU 200648Z AUTO 13007KT 2SM -RA -UP BR SCT014 BKN040 OVC080 02/02 A3014
                 RMK SLP209 =
2018-02-20 06:44 METAR CYHU 200644Z AUTO 13007KT 2SM -RA -UP BR BKN014 OVC038 02/02 A3014 RMK
                 SLP210 =
2018-02-20 06:31 METAR CYHU 200631Z AUTO 15006KT 2SM -UP BR FEW007 BKN012 OVC032 03/02 A3015 RMK
                 PRESFR SLP213 =
2018-02-20 06:30 METAR CYHU 200630Z AUTO 15006KT 1 3/4SM -UP BR FEW007 BKN012 OVC032 03/02 A3015
                 RMK SLP214 =
2018-02-20 06:24 METAR CYHU 200624Z AUTO 15005KT 1 1/2SM -RA -UP BR SCT007 BKN012 OVC032 03/02
                 A3015 RMK PRESFR SLP214 =
2018-02-20 06:20 METAR CYHU 200620Z AUTO 17005KT 1 1/2SM RA BR SCT007 OVC012 03/02 A3016 RMK
                 SLP217 =
2018-02-20 06:08 METAR CYHU 200608Z AUTO 20003KT 1 3/4SM -RA BR BKN007 OVC014 03/02 A3017 RMK
                 PRESRR SLP219 =
2018-02-20 06:00 METAR CYHU 200600Z AUTO 17003KT 2 1/4SM -RA BR BKN007 OVC016 03/02 A3015 RMK
                 SLP214 =
2018-02-20 05:56 METAR CYHU 200556Z AUTO 17004KT 2 1/4SM -RA BR BKN007 OVC016 03/02 A3015 RMK
                 SLP212 =
2018-02-20 05:35 METAR CYHU 200535Z AUTO 16005KT 2 1/4SM -RA BR FEW009 OVC014 03/02 A3014 RMK
                 SLP209 =
2018-02-20 05:20 METAR CYHU 200520Z AUTO 15005KT 4SM -RA BR OVC014 03/02 A3014 RMK SLP209 =
2018-02-20 05:18 METAR CYHU 200518Z AUTO 16005KT 4SM BR OVC014 03/02 A3014 RMK SLP210 =
2018-02-20 05:00 METAR CYHU 200500Z AUTO 16005KT 3SM -RA BR OVC014 03/02 A3015 RMK SLP211 =
2018-02-20 04:58 METAR CYHU 200458Z AUTO 17005KT 3SM -RA BR OVC012 03/02 A3015 RMK SLP211 =
2018-02-20 04:26 METAR CYHU 200426Z AUTO 17006KT 2SM -RA BR OVC010 03/02 A3015 RMK SLP211 =
2018-02-20 04:00 METAR CYHU 200400Z AUTO 18006KT 1 3/4SM -RA BR OVC010 02/02 A3016 RMK SLP215 =
2018-02-20 03:58 METAR CYHU 200358Z AUTO 18005KT 1 3/4SM -RA BR OVC010 03/02 A3016 RMK SLP216 =
2018-02-20 03:56 METAR CYHU 200356Z AUTO 19006KT 2SM -RA BR OVC010 02/02 A3016 RMK SLP216 =
2018-02-20 03:19 METAR CYHU 200319Z AUTO 17008KT 2SM BR BKN012 OVC023 03/02 A3015 RMK SLP212 =
2018-02-20 03:05 METAR CYHU 200305Z AUTO 18010G15KT 2SM -RA BR BKN012 OVC025 03/02 A3015 RMK
                 SLP212 =
2018-02-20 03:02 METAR CYHU 200302Z AUTO 18010G15KT 2SM -RA BR SCT012 OVC025 03/01 A3015 RMK
                 SLP211 =
2018-02-20 03:00 METAR CYHU 200300Z AUTO 17010KT 2SM BR SCT012 OVC025 03/01 A3015 RMK SLP211 =
2018-02-20 02:50 METAR CYHU 200250Z AUTO 17009KT 2 1/2SM BR OVC025 03/01 A3014 RMK PRESFR SLP209
                 =
2018-02-20 02:33 METAR CYHU 200233Z AUTO 18009KT 2 1/2SM -RA BR SCT018 OVC025 03/01 A3016 RMK
                 SLP215 =
2018-02-20 02:23 METAR CYHU 200223Z AUTO 18011KT 4SM -RA BR BKN018 OVC023 03/01 A3016 RMK SLP215
                 =
2018-02-20 02:20 METAR CYHU 200220Z AUTO 18010KT 5SM BR OVC018 03/01 A3016 RMK SLP216 =
2018-02-20 02:00 METAR CYHU 200200Z AUTO 18009KT 8SM OVC018 03/00 A3015 RMK SLP213 =
2018-02-20 01:00 METAR CYHU 200100Z AUTO 17008KT 8SM BKN018 OVC023 03/00 A3014 RMK SLP209 =
2018-02-20 00:38 METAR CYHU 200038Z AUTO 18008KT 6SM BR OVC023 03/01 A3015 RMK SLP212 =
2018-02-20 00:14 METAR CYHU 200014Z AUTO 17010KT 6SM BR OVC025 03/01 A3016 RMK SLP216 =
2018-02-20 00:04 METAR CYHU 200004Z AUTO 18009KT 6SM BR OVC023 03/01 A3016 RMK SLP217 =
2018-02-20 00:00 METAR CYHU 200000Z AUTO 18009KT 4SM BR BKN023 OVC030 03/01 A3017 RMK SLP218 =
2018-02-19 23:47 METAR CYHU 192347Z AUTO 18010KT 5SM BR BKN021 OVC032 03/01 A3016 RMK SLP217 =
2018-02-19 23:46 METAR CYHU 192346Z AUTO 18009KT 6SM -RA BR BKN021 OVC032 03/01 A3016 RMK SLP217
                 =
2018-02-19 23:16 METAR CYHU 192316Z AUTO 18011KT 6SM -RA BR FEW037 OVC047 03/01 A3015 RMK SLP213
                 =
2018-02-19 23:01 METAR CYHU 192301Z AUTO 18014KT 5SM -RA BR SCT038 OVC045 03/01 A3015 RMK SLP214
                 =
2018-02-19 23:00 METAR CYHU 192300Z AUTO 18012G18KT 6SM -RA BR OVC043 03/01 A3015 RMK SLP214 =
2018-02-19 22:00 METAR CYHU 192200Z AUTO 19015G23KT 7SM RA BKN039 OVC065 04/M00 A3014 RMK SLP210
                 =
2018-02-19 21:45 METAR CYHU 192145Z AUTO 18015G25KT 9SM -RA OVC060 05/M02 A3013 RMK SLP207 =
2018-02-19 21:00 METAR CYHU 192100Z AUTO 18013G19KT 9SM OVC070 05/M02 A3015 RMK SLP211 =
2018-02-19 20:00 METAR CYHU 192000Z AUTO 18016G24KT 9SM OVC085 05/M03 A3015 RMK SLP214 =
2018-02-19 19:00 METAR CYHU 191900Z AUTO 18016G23KT 9SM CLR 04/M03 A3016 RMK SLP217 =
2018-02-19 18:00 METAR CYHU 191800Z AUTO 18016G25KT 9SM CLR 04/M03 A3017 RMK SLP220 =
2018-02-19 17:00 METAR CYHU 191700Z AUTO 18019G26KT 9SM CLR 03/M04 A3020 RMK SLP230 =
2018-02-19 16:45 METAR CYHU 191645Z AUTO 17018G27KT 9SM -RA CLR 03/M04 A3021 RMK SLP233 =
2018-02-19 16:44 METAR CYHU 191644Z AUTO 17018G27KT 9SM -RASN CLR 03/M04 A3021 RMK SLP232 =
2018-02-19 16:43 METAR CYHU 191643Z AUTO 17019G27KT 4SM -RASN CLR 03/M04 A3021 RMK SLP233 =
2018-02-19 16:41 METAR CYHU 191641Z AUTO 18019G27KT 2SM -RASN CLR 03/M04 A3021 RMK SLP232 =
2018-02-19 16:40 METAR CYHU 191640Z AUTO 18021G27KT 1 3/4SM -RASN CLR 03/M04 A3021 RMK SLP233 =
2018-02-19 16:24 METAR CYHU 191624Z AUTO 17018G28KT 3/4SM R24R/P6000FT/N -SN CLR 02/M04 A3022 RMK
                 VIS VRB 1/4-3 SLP235 =
2018-02-19 16:14 METAR CYHU 191614Z AUTO 18019G26KT 1SM R24R/P6000FT/N -SN -UP CLR 02/M04 A3022
                 RMK PRESFR SLP237 =
2018-02-19 16:02 METAR CYHU 191602Z AUTO 18014G21KT 5/8SM R24R/P6000FT/N SN CLR 02/M04 A3024 RMK
                 VIS VRB 1/8-2 1/4 SLP243 =
2018-02-19 16:00 METAR CYHU 191600Z AUTO 18016G26KT 3/8SM R24R/P6000FT/N SN CLR 02/M04 A3024 RMK
                 SLP243 =
2018-02-19 15:57 METAR CYHU 191557Z AUTO 18015G26KT 3/8SM R24R/P6000FT/N SN CLR 02/M04 A3023 RMK
                 SLP241 =
2018-02-19 15:00 METAR CYHU 191500Z AUTO 18019KT 1/4SM R24R/P6000FT/N +SN CLR 01/M05 A3024 RMK
                 SLP244 =
2018-02-19 14:30 METAR CYHU 191430Z AUTO 18016G21KT 1/4SM R24R/P6000FT/N +SN CLR 01/M05 A3026 RMK
                 SLP249 =
2018-02-19 14:27 METAR CYHU 191427Z AUTO 18014G26KT 1/8SM R24R/P6000FT/N -SN CLR 01/M05 A3026 RMK
                 SLP249 =
2018-02-19 14:18 METAR CYHU 191418Z AUTO 18021G26KT 1/4SM R24R/P6000FT/N +SN CLR 01/M06 A3026 RMK
                 SLP249 =
2018-02-19 14:00 METAR CYHU 191400Z AUTO 18017G24KT 3/8SM R24R/P6000FT/N SN CLR 01/M06 A3027 RMK
                 SLP254 =
2018-02-19 13:58 METAR CYHU 191358Z AUTO 18019G24KT 3/8SM R24R/P6000FT/N SN CLR 01/M06 A3027 RMK
                 SLP253 =
2018-02-19 13:47 METAR CYHU 191347Z AUTO 17014G22KT 5/8SM R24R/P6000FT/N SN CLR 00/M06 A3028 RMK
                 VIS VRB 1/4-3 SLP256 =
2018-02-19 13:35 METAR CYHU 191335Z AUTO 17018G23KT 3/8SM R24R/P6000FT/N SN CLR 00/M06 A3028 RMK
                 SLP258 =
2018-02-19 13:21 METAR CYHU 191321Z AUTO 17014G21KT 1 3/4SM -SN FEW055 M00/M06 A3029 RMK VIS VRB
                 3/8-3 SLP259 =
2018-02-19 13:18 METAR CYHU 191318Z AUTO 17015G21KT 3SM -SN FEW055 M00/M06 A3029 RMK SLP259 =
2018-02-19 13:09 METAR CYHU 191309Z AUTO 17014G23KT 9SM -SN FEW055 SCT240 M00/M06 A3029 RMK
                 SLP260 =
2018-02-19 13:05 METAR CYHU 191305Z AUTO 17014G21KT 3SM -SN FEW055 SCT240 M00/M07 A3029 RMK
                 SLP260 =
2018-02-19 13:04 METAR CYHU 191304Z AUTO 17013G21KT 2 1/4SM -SN FEW055 SCT240 M00/M07 A3029 RMK
                 VIS VRB 5/8-3 SLP260 =
2018-02-19 13:00 METAR CYHU 191300Z AUTO 17013G20KT 1SM R24R/P6000FT/N -SN FEW055 SCT240 M00/M07
                 A3029 RMK VIS VRB 1/2-3 PRESFR SLP260 =
2018-02-19 12:53 METAR CYHU 191253Z AUTO 17015G20KT 1 3/4SM -SN FEW240 M00/M07 A3030 RMK VIS VRB
                 1/2-3 SLP263 =
2018-02-19 12:52 METAR CYHU 191252Z AUTO 17015KT 2 1/2SM -SN SCT240 M00/M07 A3030 RMK VIS VRB
                 5/8-3 SLP263 =
2018-02-19 12:48 METAR CYHU 191248Z AUTO 17013KT 5SM -SN SCT240 M00/M07 A3030 RMK SLP264 =
2018-02-19 12:24 METAR CYHU 191224Z AUTO 17013G18KT 9SM -SN SCT200 BKN240 M01/M07 A3030 RMK
                 SLP264 =
2018-02-19 12:00 METAR CYHU 191200Z AUTO 17012G17KT 9SM BKN200 BKN220 BKN240 M01/M07 A3031 RMK
                 SLP267 =
2018-02-19 11:00 METAR CYHU 191100Z AUTO 16009KT 9SM FEW210 SCT230 SCT250 M02/M07 A3033 RMK
                 SLP273 =
2018-02-19 10:00 METAR CYHU 191000Z AUTO 17008KT 9SM CLR M03/M07 A3035 RMK SLP279 =

Support USWX by starting your Amazon purchase here.